createdAt,value
2023-04-07T00:00:51.467Z,99396.91
2023-04-07T00:01:53.425Z,99390.53
2023-04-07T00:02:55.931Z,99395.84
2023-04-07T00:03:58.189Z,99387.28
2023-04-07T00:05:02.755Z,99390.50
2023-04-07T00:06:04.772Z,99392.22
2023-04-07T00:07:07.104Z,99373.03
2023-04-07T00:08:09.060Z,99387.06
2023-04-07T00:09:11.241Z,99383.47
2023-04-07T00:10:13.455Z,99387.56
2023-04-07T00:11:15.704Z,99382.63
2023-04-07T00:12:17.773Z,99387.81
2023-04-07T00:13:19.924Z,99377.34
2023-04-07T00:14:21.845Z,99382.34
2023-04-07T00:15:23.766Z,99378.72
2023-04-07T00:16:25.781Z,99378.06
2023-04-07T00:17:27.842Z,99383.44
2023-04-07T00:18:29.768Z,99387.91
2023-04-07T00:19:33.441Z,99378.25
2023-04-07T00:20:35.407Z,99377.13
2023-04-07T00:21:37.364Z,99376.16
2023-04-07T00:22:39.616Z,99371.03
2023-04-07T00:23:42.834Z,99366.63
2023-04-07T00:24:44.864Z,99371.69
2023-04-07T00:25:47.972Z,99376.03
2023-04-07T00:26:49.971Z,99373.19
2023-04-07T00:27:51.927Z,99371.50
2023-04-07T00:28:53.906Z,99365.56
2023-04-07T00:29:55.978Z,99364.16
2023-04-07T00:30:57.984Z,99353.19
2023-04-07T00:32:00.093Z,99360.09
2023-04-07T00:33:02.050Z,99350.31
2023-04-07T00:34:04.016Z,99357.16
2023-04-07T00:35:06.134Z,99357.19
2023-04-07T00:36:08.218Z,99352.63
2023-04-07T00:37:10.416Z,99355.34
2023-04-07T00:38:12.995Z,99356.94
2023-04-07T00:39:14.920Z,99348.16
2023-04-07T00:40:17.196Z,99353.41
2023-04-07T00:41:19.172Z,99350.88
2023-04-07T00:42:21.250Z,99349.94
2023-04-07T00:43:23.460Z,99355.03
2023-04-07T00:44:25.553Z,99338.59
2023-04-07T00:45:27.993Z,99343.63
2023-04-07T00:46:30.301Z,99344.47
2023-04-07T00:47:32.374Z,99337.38
2023-04-07T00:48:34.450Z,99335.81
2023-04-07T00:49:39.148Z,99329.66
2023-04-07T00:50:41.126Z,99338.63
2023-04-07T00:51:43.221Z,99331.66
2023-04-07T00:52:45.956Z,99338.75
2023-04-07T00:53:48.673Z,99330.00
2023-04-07T00:54:50.602Z,99335.38
2023-04-07T00:55:52.561Z,99338.56
2023-04-07T00:56:54.884Z,99336.03
2023-04-07T00:57:57.169Z,99331.53
2023-04-07T00:59:00.330Z,99329.84
2023-04-07T01:00:06.562Z,99329.19
2023-04-07T01:01:13.446Z,99328.31
2023-04-07T01:02:32.422Z,99321.19
2023-04-07T01:03:36.670Z,99324.69
2023-04-07T01:04:39.235Z,99324.94
2023-04-07T01:05:52.997Z,99318.81
2023-04-07T01:06:58.903Z,99319.41
2023-04-07T01:08:09.875Z,99324.59
2023-04-07T01:09:18.293Z,99319.03
2023-04-07T01:10:41.719Z,99315.28
2023-04-07T01:12:03.604Z,99321.59
2023-04-07T01:13:08.176Z,99319.63
2023-04-07T01:14:11.444Z,99310.94
2023-04-07T01:15:21.335Z,99312.59
2023-04-07T01:16:34.761Z,99302.19
2023-04-07T01:17:39.615Z,99312.78
2023-04-07T01:18:44.037Z,99295.66
2023-04-07T01:19:48.653Z,99301.88
2023-04-07T01:20:52.830Z,99300.94
2023-04-07T01:21:56.292Z,99298.84
2023-04-07T01:23:02.127Z,99300.03
2023-04-07T01:24:13.484Z,99291.41
2023-04-07T01:25:23.470Z,99292.34
2023-04-07T01:26:30.153Z,99288.03
2023-04-07T01:27:32.052Z,99287.34
2023-04-07T01:28:44.646Z,99283.72
2023-04-07T01:29:48.434Z,99288.72
2023-04-07T01:30:52.174Z,99275.56
2023-04-07T01:31:55.812Z,99277.34
2023-04-07T01:32:58.752Z,99278.50
2023-04-07T01:34:02.568Z,99274.00
2023-04-07T01:35:06.225Z,99274.81
2023-04-07T01:36:09.264Z,99282.53
2023-04-07T01:37:11.589Z,99282.44
2023-04-07T01:38:14.138Z,99277.03
2023-04-07T01:39:16.448Z,99278.25
2023-04-07T01:40:19.073Z,99279.81
2023-04-07T01:41:21.989Z,99282.22
2023-04-07T01:42:26.170Z,99282.22
2023-04-07T01:43:28.741Z,99284.75
2023-04-07T01:44:32.368Z,99284.84
2023-04-07T01:45:35.899Z,99277.03
2023-04-07T01:46:37.884Z,99283.13
2023-04-07T01:47:39.919Z,99274.38
2023-04-07T01:48:43.368Z,99280.19
2023-04-07T01:49:46.910Z,99268.88
2023-04-07T01:50:50.020Z,99279.19
2023-04-07T01:51:52.153Z,99274.84
2023-04-07T01:52:54.303Z,99269.66
2023-04-07T01:53:56.724Z,99274.91
2023-04-07T01:54:58.827Z,99273.44
2023-04-07T01:56:01.686Z,99272.75
2023-04-07T01:57:05.314Z,99273.41
2023-04-07T01:58:07.885Z,99268.88
2023-04-07T01:59:12.407Z,99272.22
2023-04-07T02:02:10.897Z,99274.44
2023-04-07T02:03:23.302Z,99269.47
2023-04-07T02:04:37.121Z,99264.97
2023-04-07T02:05:40.304Z,99271.09
2023-04-07T02:06:53.047Z,99273.44
2023-04-07T02:08:03.959Z,99269.28
2023-04-07T02:09:13.073Z,99265.59
2023-04-07T02:10:17.343Z,99261.34
2023-04-07T02:11:22.166Z,99256.50
2023-04-07T02:12:29.838Z,99260.75
2023-04-07T02:13:43.481Z,99266.13
2023-04-07T02:14:47.511Z,99264.25
2023-04-07T02:15:53.363Z,99264.97
2023-04-07T02:16:57.717Z,99260.19
2023-04-07T02:18:01.294Z,99257.44
2023-04-07T02:19:04.616Z,99253.97
2023-04-07T02:20:10.577Z,99256.59
2023-04-07T02:21:15.493Z,99258.28
2023-04-07T02:22:21.017Z,99260.94
2023-04-07T02:23:23.170Z,99258.81
2023-04-07T02:24:25.461Z,99253.41
2023-04-07T02:25:30.043Z,99255.78
2023-04-07T02:26:36.102Z,99248.75
2023-04-07T02:27:38.271Z,99255.66
2023-04-07T02:28:40.944Z,99254.84
2023-04-07T02:29:43.211Z,99252.38
2023-04-07T02:30:45.368Z,99255.94
2023-04-07T02:31:47.550Z,99252.41
2023-04-07T02:32:49.893Z,99246.25
2023-04-07T02:33:52.344Z,99251.38
2023-04-07T02:34:54.660Z,99252.41
2023-04-07T02:35:56.782Z,99250.56
2023-04-07T02:36:58.970Z,99248.63
2023-04-07T02:38:02.774Z,99249.56
2023-04-07T02:39:04.991Z,99241.00
2023-04-07T02:40:07.760Z,99241.91
2023-04-07T02:41:09.976Z,99240.66
2023-04-07T02:42:12.158Z,99245.00
2023-04-07T02:43:14.649Z,99237.31
2023-04-07T02:44:16.950Z,99239.09
2023-04-07T02:45:19.129Z,99234.53
2023-04-07T02:46:21.454Z,99238.16
2023-04-07T02:47:24.025Z,99231.22
2023-04-07T02:48:26.369Z,99237.19
2023-04-07T02:49:28.530Z,99237.31
2023-04-07T02:50:30.757Z,99228.84
2023-04-07T02:51:33.002Z,99235.84
2023-04-07T02:52:35.458Z,99226.22
2023-04-07T02:53:41.328Z,99236.72
2023-04-07T02:54:44.050Z,99229.63
2023-04-07T02:55:47.579Z,99221.72
2023-04-07T02:56:49.853Z,99226.22
2023-04-07T02:57:52.103Z,99229.88
2023-04-07T02:59:12.891Z,99238.56
2023-04-07T03:00:18.498Z,99226.47
2023-04-07T03:01:35.000Z,99226.22
2023-04-07T03:02:37.787Z,99224.47
2023-04-07T03:03:42.300Z,99224.47
2023-04-07T03:04:51.939Z,99219.13
2023-04-07T03:05:54.676Z,99228.84
2023-04-07T03:06:56.946Z,99224.28
2023-04-07T03:07:59.306Z,99218.41
2023-04-07T03:09:01.668Z,99221.00
2023-04-07T03:10:04.054Z,99221.56
2023-04-07T03:11:07.841Z,99222.34
2023-04-07T03:12:10.548Z,99220.59
2023-04-07T03:13:13.601Z,99216.19
2023-04-07T03:14:16.289Z,99221.47
2023-04-07T03:15:21.931Z,99211.91
2023-04-07T03:16:25.548Z,99217.25
2023-04-07T03:17:54.031Z,99205.72
2023-04-07T03:18:56.453Z,99210.94
2023-04-07T03:19:59.044Z,99205.56
2023-04-07T03:21:02.947Z,99209.88
2023-04-07T03:22:06.001Z,99204.69
2023-04-07T03:23:11.916Z,99211.63
2023-04-07T03:24:14.279Z,99203.53
2023-04-07T03:25:16.771Z,99213.31
2023-04-07T03:26:20.741Z,99205.53
2023-04-07T03:27:22.976Z,99202.91
2023-04-07T03:28:25.339Z,99210.66
2023-04-07T03:29:27.531Z,99203.13
2023-04-07T03:30:29.868Z,99205.91
2023-04-07T03:31:32.223Z,99205.97
2023-04-07T03:32:34.629Z,99201.63
2023-04-07T03:33:36.773Z,99199.38
2023-04-07T03:34:38.944Z,99203.03
2023-04-07T03:35:42.317Z,99203.19
2023-04-07T03:36:46.730Z,99200.66
2023-04-07T03:37:48.990Z,99210.22
2023-04-07T03:38:53.725Z,99198.94
2023-04-07T03:39:56.295Z,99215.31
2023-04-07T03:41:05.175Z,99212.72
2023-04-07T03:42:07.312Z,99204.91
2023-04-07T03:43:12.432Z,99198.75
2023-04-07T03:44:14.714Z,99201.41
2023-04-07T03:45:17.497Z,99202.22
2023-04-07T03:46:23.792Z,99208.84
2023-04-07T03:47:26.257Z,99211.41
2023-04-07T03:48:32.948Z,99213.19
2023-04-07T03:49:40.531Z,99208.84
2023-04-07T03:50:43.334Z,99205.06
2023-04-07T03:51:50.266Z,99200.75
2023-04-07T03:52:54.109Z,99212.94
2023-04-07T03:54:00.698Z,99208.63
2023-04-07T03:55:15.902Z,99209.00
2023-04-07T03:56:18.098Z,99211.59
2023-04-07T03:57:23.644Z,99209.75
2023-04-07T03:58:27.228Z,99207.06
2023-04-07T03:59:29.376Z,99202.91
2023-04-07T04:00:36.695Z,99210.50
2023-04-07T04:01:44.772Z,99206.34
2023-04-07T04:02:50.709Z,99207.13
2023-04-07T04:03:55.916Z,99209.88
2023-04-07T04:05:06.394Z,99206.72
2023-04-07T04:06:08.663Z,99210.22
2023-04-07T04:07:10.849Z,99206.03
2023-04-07T04:08:22.057Z,99210.59
2023-04-07T04:09:24.305Z,99212.38
2023-04-07T04:10:27.245Z,99210.78
2023-04-07T04:11:31.585Z,99211.06
2023-04-07T04:12:37.892Z,99202.31
2023-04-07T04:13:44.515Z,99208.34
2023-04-07T04:14:47.500Z,99198.00
2023-04-07T04:15:51.521Z,99190.91
2023-04-07T04:16:54.633Z,99202.09
2023-04-07T04:18:22.959Z,99213.97
2023-04-07T04:19:26.335Z,99210.25
2023-04-07T04:20:30.674Z,99210.06
2023-04-07T04:21:33.010Z,99214.38
2023-04-07T04:22:35.887Z,99209.59
2023-04-07T04:23:38.048Z,99212.22
2023-04-07T04:24:42.714Z,99219.03
2023-04-07T04:25:44.967Z,99213.22
2023-04-07T04:26:48.300Z,99214.84
2023-04-07T04:27:50.696Z,99198.38
2023-04-07T04:28:56.620Z,99207.19
2023-04-07T04:29:58.964Z,99213.97
2023-04-07T04:31:10.311Z,99212.19
2023-04-07T04:32:17.793Z,99209.53
2023-04-07T04:33:20.830Z,99213.81
2023-04-07T04:34:30.592Z,99216.47
2023-04-07T04:35:32.948Z,99214.72
2023-04-07T04:36:44.835Z,99209.38
2023-04-07T04:37:47.442Z,99212.75
2023-04-07T04:38:50.582Z,99215.78
2023-04-07T04:39:55.486Z,99215.66
2023-04-07T04:40:59.500Z,99213.13
2023-04-07T04:42:05.742Z,99208.94
2023-04-07T04:43:10.929Z,99208.19
2023-04-07T04:44:15.616Z,99208.25
2023-04-07T04:45:18.356Z,99204.22
2023-04-07T04:46:23.167Z,99203.50
2023-04-07T04:47:26.098Z,99205.41
2023-04-07T04:48:28.454Z,99201.06
2023-04-07T04:49:31.473Z,99202.91
2023-04-07T04:50:37.166Z,99212.22
2023-04-07T04:51:45.492Z,99206.41
2023-04-07T04:52:51.558Z,99204.75
2023-04-07T04:53:57.667Z,99203.31
2023-04-07T04:55:02.151Z,99204.19
2023-04-07T04:56:05.382Z,99212.06
2023-04-07T04:57:15.952Z,99210.34
2023-04-07T04:58:20.546Z,99215.47
2023-04-07T04:59:27.046Z,99212.84
2023-04-07T05:00:36.298Z,99215.38
2023-04-07T05:01:42.221Z,99224.78
2023-04-07T05:02:48.560Z,99218.84
2023-04-07T05:03:51.309Z,99220.91
2023-04-07T05:05:01.437Z,99223.31
2023-04-07T05:06:05.263Z,99220.72
2023-04-07T05:07:08.175Z,99218.19
2023-04-07T05:08:11.470Z,99219.13
2023-04-07T05:09:15.684Z,99225.25
2023-04-07T05:10:20.857Z,99219.16
2023-04-07T05:11:26.651Z,99226.22
2023-04-07T05:12:31.140Z,99215.91
2023-04-07T05:13:36.921Z,99220.31
2023-04-07T05:14:39.958Z,99227.97
2023-04-07T05:15:44.016Z,99225.47
2023-04-07T05:16:48.516Z,99227.38
2023-04-07T05:17:56.202Z,99226.63
2023-04-07T05:19:02.111Z,99232.50
2023-04-07T05:20:05.842Z,99232.31
2023-04-07T05:21:11.697Z,99227.81
2023-04-07T05:22:13.949Z,99229.53
2023-04-07T05:23:22.415Z,99225.09
2023-04-07T05:24:28.561Z,99225.19
2023-04-07T05:25:34.530Z,99223.38
2023-04-07T05:26:39.752Z,99222.22
2023-04-07T05:27:41.977Z,99220.34
2023-04-07T05:28:48.969Z,99222.16
2023-04-07T05:29:55.224Z,99221.47
2023-04-07T05:31:07.539Z,99218.09
2023-04-07T05:32:11.167Z,99227.28
2023-04-07T05:33:13.759Z,99226.88
2023-04-07T05:34:22.754Z,99227.53
2023-04-07T05:35:29.068Z,99223.88
2023-04-07T05:36:35.151Z,99221.63
2023-04-07T05:37:37.410Z,99221.72
2023-04-07T05:38:41.905Z,99225.22
2023-04-07T05:39:48.826Z,99227.03
2023-04-07T05:40:51.580Z,99227.50
2023-04-07T05:42:02.951Z,99217.69
2023-04-07T05:43:05.201Z,99229.13
2023-04-07T05:44:09.177Z,99231.19
2023-04-07T05:45:15.945Z,99228.78
2023-04-07T05:46:21.876Z,99231.19
2023-04-07T05:47:30.925Z,99232.09
2023-04-07T05:48:33.236Z,99232.97
2023-04-07T05:49:35.770Z,99240.22
2023-04-07T05:50:42.381Z,99235.78
2023-04-07T05:51:49.237Z,99233.66
2023-04-07T05:52:51.716Z,99234.81
2023-04-07T05:54:03.646Z,99235.25
2023-04-07T05:55:07.313Z,99234.25
2023-04-07T05:56:09.572Z,99236.69
2023-04-07T05:57:21.261Z,99236.69
2023-04-07T05:58:24.511Z,99227.25
2023-04-07T05:59:29.561Z,99233.25
2023-04-07T06:00:31.929Z,99225.19
2023-04-07T06:01:42.989Z,99235.94
2023-04-07T06:02:46.837Z,99235.56
2023-04-07T06:03:53.657Z,99234.50
2023-04-07T06:05:01.101Z,99223.81
2023-04-07T06:06:03.425Z,99233.81
2023-04-07T06:07:06.008Z,99227.91
2023-04-07T06:08:08.216Z,99235.25
2023-04-07T06:09:10.556Z,99240.97
2023-04-07T06:10:12.754Z,99231.34
2023-04-07T06:11:15.034Z,99231.28
2023-04-07T06:12:17.409Z,99230.59
2023-04-07T06:13:19.654Z,99229.66
2023-04-07T06:14:21.922Z,99225.50
2023-04-07T06:15:24.160Z,99229.28
2023-04-07T06:16:26.380Z,99227.66
2023-04-07T06:17:28.762Z,99229.28
2023-04-07T06:18:31.108Z,99220.41
2023-04-07T06:19:34.143Z,99232.22
2023-04-07T06:20:36.694Z,99219.91
2023-04-07T06:21:39.858Z,99223.19
2023-04-07T06:22:42.048Z,99228.94
2023-04-07T06:23:44.233Z,99216.69
2023-04-07T06:24:46.515Z,99227.25
2023-04-07T06:25:52.954Z,99218.53
2023-04-07T06:26:56.806Z,99223.81
2023-04-07T06:27:59.049Z,99215.25
2023-04-07T06:29:01.617Z,99213.88
2023-04-07T06:30:04.240Z,99211.81
2023-04-07T06:31:07.104Z,99220.78
2023-04-07T06:32:09.343Z,99205.78
2023-04-07T06:33:11.940Z,99209.09
2023-04-07T06:34:16.449Z,99202.06
2023-04-07T06:35:18.740Z,99200.75
2023-04-07T06:36:21.670Z,99199.53
2023-04-07T06:37:25.130Z,99205.31
2023-04-07T06:38:27.314Z,99208.91
2023-04-07T06:39:30.557Z,99215.22
2023-04-07T06:40:33.201Z,99216.19
2023-04-07T06:41:36.591Z,99208.00
2023-04-07T06:42:39.153Z,99211.53
2023-04-07T06:43:49.122Z,99218.41
2023-04-07T06:44:51.525Z,99217.00
2023-04-07T06:45:53.772Z,99218.75
2023-04-07T06:46:56.355Z,99220.44
2023-04-07T06:47:58.674Z,99220.69
2023-04-07T06:49:01.157Z,99218.91
2023-04-07T06:50:03.436Z,99218.53
2023-04-07T06:51:05.791Z,99219.28
2023-04-07T06:52:07.930Z,99223.41
2023-04-07T06:53:10.282Z,99220.69
2023-04-07T06:54:13.944Z,99220.53
2023-04-07T06:55:16.233Z,99217.41
2023-04-07T06:56:24.144Z,99213.28
2023-04-07T06:57:27.522Z,99212.75
2023-04-07T06:58:29.691Z,99214.19
2023-04-07T06:59:31.861Z,99211.97
2023-04-07T07:00:34.490Z,99208.16
2023-04-07T07:01:37.798Z,99214.44
2023-04-07T07:02:40.728Z,99208.81
2023-04-07T07:03:43.272Z,99220.22
2023-04-07T07:04:45.801Z,99217.72
2023-04-07T07:05:48.992Z,99214.88
2023-04-07T07:06:52.647Z,99207.25
2023-04-07T07:07:54.936Z,99212.19
2023-04-07T07:08:57.601Z,99210.44
2023-04-07T07:09:59.857Z,99203.50
2023-04-07T07:11:02.082Z,99207.59
2023-04-07T07:12:04.442Z,99207.16
2023-04-07T07:13:06.605Z,99206.19
2023-04-07T07:14:08.843Z,99214.34
2023-04-07T07:15:11.143Z,99209.97
2023-04-07T07:16:13.458Z,99205.28
2023-04-07T07:17:16.340Z,99209.41
2023-04-07T07:18:19.338Z,99200.28
2023-04-07T07:19:21.637Z,99204.28
2023-04-07T07:20:25.718Z,99201.94
2023-04-07T07:21:28.056Z,99200.38
2023-04-07T07:22:30.360Z,99199.72
2023-04-07T07:23:32.784Z,99203.34
2023-04-07T07:24:35.150Z,99199.88
2023-04-07T07:25:37.361Z,99198.97
2023-04-07T07:26:42.294Z,99204.88
2023-04-07T07:27:45.986Z,99203.50
2023-04-07T07:28:48.247Z,99197.41
2023-04-07T07:29:50.448Z,99204.38
2023-04-07T07:30:52.732Z,99195.78
2023-04-07T07:31:55.832Z,99205.63
2023-04-07T07:32:58.618Z,99207.44
2023-04-07T07:34:00.927Z,99202.38
2023-04-07T07:35:03.118Z,99200.22
2023-04-07T07:36:05.586Z,99207.91
2023-04-07T07:37:08.074Z,99193.47
2023-04-07T07:38:11.697Z,99198.31
2023-04-07T07:39:14.333Z,99197.91
2023-04-07T07:40:16.486Z,99197.75
2023-04-07T07:41:18.781Z,99207.66
2023-04-07T07:42:21.048Z,99197.50
2023-04-07T07:43:23.197Z,99203.88
2023-04-07T07:44:25.461Z,99203.19
2023-04-07T07:45:27.649Z,99197.66
2023-04-07T07:46:29.880Z,99198.06
2023-04-07T07:47:32.374Z,99203.09
2023-04-07T07:48:34.600Z,99210.84
2023-04-07T07:49:36.927Z,99204.34
2023-04-07T07:50:39.241Z,99204.63
2023-04-07T07:51:41.405Z,99193.97
2023-04-07T07:52:43.685Z,99207.44
2023-04-07T07:53:46.343Z,99195.81
2023-04-07T07:54:50.138Z,99208.44
2023-04-07T07:55:52.656Z,99208.75
2023-04-07T07:56:54.846Z,99206.00
2023-04-07T07:57:57.051Z,99199.97
2023-04-07T07:58:59.260Z,99197.56
2023-04-07T08:00:01.458Z,99198.16
2023-04-07T08:01:03.794Z,99196.63
2023-04-07T08:02:06.732Z,99194.84
2023-04-07T08:03:09.035Z,99195.13
2023-04-07T08:04:11.496Z,99206.66
2023-04-07T08:05:13.858Z,99197.59
2023-04-07T08:06:16.553Z,99196.03
2023-04-07T08:07:18.843Z,99187.59
2023-04-07T08:08:21.173Z,99195.63
2023-04-07T08:09:23.315Z,99193.31
2023-04-07T08:10:25.636Z,99194.25
2023-04-07T08:11:27.878Z,99199.50
2023-04-07T08:12:30.168Z,99202.16
2023-04-07T08:13:32.441Z,99204.41
2023-04-07T08:14:34.669Z,99194.94
2023-04-07T08:15:37.118Z,99201.31
2023-04-07T08:16:39.365Z,99215.78
2023-04-07T08:17:41.632Z,99213.81
2023-04-07T08:18:43.907Z,99209.25
2023-04-07T08:19:46.359Z,99203.63
2023-04-07T08:20:48.598Z,99203.50
2023-04-07T08:21:50.914Z,99204.22
2023-04-07T08:22:53.053Z,99195.97
2023-04-07T08:23:55.867Z,99199.66
2023-04-07T08:24:58.057Z,99192.91
2023-04-07T08:26:00.516Z,99205.44
2023-04-07T08:27:02.821Z,99202.66
2023-04-07T08:28:05.257Z,99193.16
2023-04-07T08:29:07.386Z,99201.31
2023-04-07T08:30:09.893Z,99203.38
2023-04-07T08:31:12.197Z,99206.41
2023-04-07T08:32:14.477Z,99194.59
2023-04-07T08:33:16.682Z,99206.75
2023-04-07T08:34:20.745Z,99200.19
2023-04-07T08:35:23.062Z,99206.41
2023-04-07T08:36:26.375Z,99209.72
2023-04-07T08:37:28.623Z,99202.50
2023-04-07T08:38:31.215Z,99208.38
2023-04-07T08:39:33.967Z,99204.59
2023-04-07T08:40:36.331Z,99204.06
2023-04-07T08:41:40.825Z,99205.91
2023-04-07T08:42:47.390Z,99212.25
2023-04-07T08:43:51.476Z,99200.47
2023-04-07T08:44:56.202Z,99202.66
2023-04-07T08:45:58.621Z,99206.31
2023-04-07T08:47:03.334Z,99203.66
2023-04-07T08:48:17.596Z,99211.72
2023-04-07T08:49:21.267Z,99212.00
2023-04-07T08:50:27.116Z,99212.31
2023-04-07T08:51:33.127Z,99203.81
2023-04-07T08:52:49.872Z,99222.25
2023-04-07T08:53:54.238Z,99211.75
2023-04-07T08:54:58.064Z,99212.22
2023-04-07T08:56:02.051Z,99213.13
2023-04-07T08:57:05.558Z,99214.09
2023-04-07T08:58:12.438Z,99210.91
2023-04-07T08:59:15.814Z,99210.16
2023-04-07T09:00:18.519Z,99210.00
2023-04-07T09:01:21.148Z,99207.91
2023-04-07T09:02:23.837Z,99217.16
2023-04-07T09:03:26.925Z,99207.25
2023-04-07T09:04:29.219Z,99227.22
2023-04-07T09:05:32.439Z,99211.13
2023-04-07T09:06:35.403Z,99211.41
2023-04-07T09:07:40.204Z,99218.50
2023-04-07T09:08:42.322Z,99214.41
2023-04-07T09:09:44.523Z,99216.91
2023-04-07T09:10:46.728Z,99218.66
2023-04-07T09:11:49.157Z,99220.72
2023-04-07T09:12:51.368Z,99230.19
2023-04-07T09:13:54.748Z,99223.78
2023-04-07T09:14:58.036Z,99222.47
2023-04-07T09:16:02.086Z,99221.22
2023-04-07T09:17:04.600Z,99222.19
2023-04-07T09:18:07.016Z,99234.91
2023-04-07T09:19:09.468Z,99218.53
2023-04-07T09:20:11.680Z,99219.03
2023-04-07T09:21:15.539Z,99213.13
2023-04-07T09:22:35.205Z,99221.06
2023-04-07T09:23:39.921Z,99212.72
2023-04-07T09:24:42.295Z,99213.28
2023-04-07T09:25:44.453Z,99213.16
2023-04-07T09:26:46.587Z,99211.03
2023-04-07T09:27:59.261Z,99208.13
2023-04-07T09:29:03.254Z,99205.84
2023-04-07T09:30:15.832Z,99212.31
2023-04-07T09:31:18.160Z,99209.19
2023-04-07T09:32:38.735Z,99214.06
2023-04-07T09:33:41.228Z,99218.78
2023-04-07T09:34:43.518Z,99218.31
2023-04-07T09:35:56.057Z,99221.47
2023-04-07T09:36:59.121Z,99221.53
2023-04-07T09:38:09.033Z,99222.47
2023-04-07T09:39:11.478Z,99219.63
2023-04-07T09:40:27.015Z,99214.06
2023-04-07T09:41:29.291Z,99226.25
2023-04-07T09:42:35.289Z,99220.88
2023-04-07T09:43:40.415Z,99214.63
2023-04-07T09:44:44.050Z,99230.81
2023-04-07T09:45:46.704Z,99225.44
2023-04-07T09:46:53.790Z,99233.44
2023-04-07T09:47:56.076Z,99214.44
2023-04-07T09:49:05.357Z,99212.59
2023-04-07T09:50:08.130Z,99224.16
2023-04-07T09:51:17.820Z,99226.81
2023-04-07T09:52:23.482Z,99229.13
2023-04-07T09:53:46.541Z,99226.41
2023-04-07T09:54:49.234Z,99225.50
2023-04-07T09:55:52.101Z,99223.00
2023-04-07T09:56:55.532Z,99221.81
2023-04-07T09:57:58.203Z,99215.50
2023-04-07T09:59:01.848Z,99229.56
2023-04-07T10:00:05.295Z,99221.25
2023-04-07T10:01:17.611Z,99217.13
2023-04-07T10:02:19.932Z,99216.69
2023-04-07T10:03:22.157Z,99215.72
2023-04-07T10:04:25.534Z,99212.53
2023-04-07T10:05:28.116Z,99216.28
2023-04-07T10:06:31.019Z,99218.78
2023-04-07T10:07:33.490Z,99215.81
2023-04-07T10:08:37.747Z,99218.88
2023-04-07T10:09:40.148Z,99216.69
2023-04-07T10:10:43.775Z,99224.44
2023-04-07T10:11:46.610Z,99217.75
2023-04-07T10:12:50.112Z,99223.38
2023-04-07T10:13:52.475Z,99225.88
2023-04-07T10:14:55.609Z,99232.91
2023-04-07T10:15:58.856Z,99225.66
2023-04-07T10:17:01.968Z,99230.88
2023-04-07T10:18:07.376Z,99232.59
2023-04-07T10:19:09.627Z,99228.25
2023-04-07T10:20:12.243Z,99225.69
2023-04-07T10:21:17.975Z,99233.56
2023-04-07T10:22:21.266Z,99234.75
2023-04-07T10:23:56.155Z,99222.88
2023-04-07T10:25:02.814Z,99216.59
2023-04-07T10:26:08.026Z,99212.16
2023-04-07T10:27:16.378Z,99229.16
2023-04-07T10:28:21.201Z,99220.56
2023-04-07T10:29:24.661Z,99219.72
2023-04-07T10:30:30.924Z,99226.97
2023-04-07T10:31:33.877Z,99228.97
2023-04-07T10:32:47.630Z,99226.53
2023-04-07T10:33:53.962Z,99216.91
2023-04-07T10:34:58.038Z,99227.25
2023-04-07T10:36:07.305Z,99235.44
2023-04-07T10:37:13.437Z,99228.44
2023-04-07T10:38:16.597Z,99226.16
2023-04-07T10:39:20.460Z,99235.84
2023-04-07T10:40:27.917Z,99231.13
2023-04-07T10:41:36.556Z,99238.56
2023-04-07T10:42:45.201Z,99221.69
2023-04-07T10:43:47.923Z,99236.16
2023-04-07T10:44:50.686Z,99236.38
2023-04-07T10:45:56.015Z,99233.25
2023-04-07T10:47:00.897Z,99230.94
2023-04-07T10:48:03.152Z,99242.72
2023-04-07T10:49:09.794Z,99239.03
2023-04-07T10:50:22.758Z,99241.06
2023-04-07T10:51:24.927Z,99237.84
2023-04-07T10:52:27.081Z,99244.13
2023-04-07T10:53:29.220Z,99235.69
2023-04-07T10:54:31.877Z,99246.25
2023-04-07T10:55:46.308Z,99237.06
2023-04-07T10:57:03.468Z,99237.06
2023-04-07T10:58:24.806Z,99240.34
2023-04-07T10:59:27.984Z,99235.44
2023-04-07T11:00:30.416Z,99239.78
2023-04-07T11:01:34.602Z,99236.91
2023-04-07T11:02:39.934Z,99238.91
2023-04-07T11:03:53.195Z,99236.94
2023-04-07T11:04:56.178Z,99231.50
2023-04-07T11:06:08.368Z,99238.09
2023-04-07T11:07:11.426Z,99235.38
2023-04-07T11:08:13.609Z,99239.09
2023-04-07T11:09:21.768Z,99239.31
2023-04-07T11:10:24.059Z,99231.28
2023-04-07T11:11:38.486Z,99232.22
2023-04-07T11:12:40.695Z,99234.25
2023-04-07T11:13:48.659Z,99230.88
2023-04-07T11:14:51.385Z,99232.91
2023-04-07T11:15:54.090Z,99229.81
2023-04-07T11:16:56.768Z,99229.38
2023-04-07T11:18:18.273Z,99230.56
2023-04-07T11:19:20.452Z,99224.28
2023-04-07T11:20:22.651Z,99223.72
2023-04-07T11:21:24.864Z,99230.34
2023-04-07T11:22:30.326Z,99232.22
2023-04-07T11:23:39.721Z,99223.94
2023-04-07T11:24:42.258Z,99224.78
2023-04-07T11:25:49.798Z,99229.28
2023-04-07T11:26:51.972Z,99229.03
2023-04-07T11:27:54.126Z,99234.97
2023-04-07T11:28:58.677Z,99227.09
2023-04-07T11:30:00.860Z,99229.66
2023-04-07T11:31:03.958Z,99229.97
2023-04-07T11:32:06.264Z,99232.63
2023-04-07T11:33:08.788Z,99235.66
2023-04-07T11:34:11.265Z,99227.28
2023-04-07T11:35:13.451Z,99230.50
2023-04-07T11:36:26.831Z,99233.66
2023-04-07T11:37:29.120Z,99232.03
2023-04-07T11:38:38.585Z,99235.50
2023-04-07T11:39:41.069Z,99247.44
2023-04-07T11:40:43.265Z,99253.16
2023-04-07T11:41:47.592Z,99235.53
2023-04-07T11:42:49.829Z,99236.13
2023-04-07T11:44:08.470Z,99235.22
2023-04-07T11:45:19.349Z,99235.00
2023-04-07T11:46:22.539Z,99241.53
2023-04-07T11:47:39.772Z,99234.66
2023-04-07T11:48:43.526Z,99239.31
2023-04-07T11:49:46.969Z,99242.19
2023-04-07T11:50:49.276Z,99243.97
2023-04-07T11:52:04.615Z,99243.69
2023-04-07T11:53:06.871Z,99238.53
2023-04-07T11:54:10.064Z,99241.66
2023-04-07T11:55:23.592Z,99247.06
2023-04-07T11:56:27.972Z,99244.44
2023-04-07T11:57:30.201Z,99247.06
2023-04-07T11:58:32.608Z,99246.88
2023-04-07T11:59:34.794Z,99235.69
2023-04-07T12:00:37.426Z,99243.66
2023-04-07T12:01:45.003Z,99239.78
2023-04-07T12:02:47.496Z,99245.69
2023-04-07T12:04:01.959Z,99236.44
2023-04-07T12:05:06.016Z,99243.03
2023-04-07T12:06:08.271Z,99226.47
2023-04-07T12:07:11.613Z,99230.03
2023-04-07T12:08:15.914Z,99235.50
2023-04-07T12:09:35.896Z,99230.03
2023-04-07T12:10:40.391Z,99241.78
2023-04-07T12:11:49.373Z,99234.81
2023-04-07T12:12:51.982Z,99241.84
2023-04-07T12:13:54.469Z,99239.13
2023-04-07T12:14:56.886Z,99232.78
2023-04-07T12:15:59.871Z,99224.25
2023-04-07T12:17:03.534Z,99241.06
2023-04-07T12:18:06.199Z,99227.44
2023-04-07T12:19:08.396Z,99230.13
2023-04-07T12:20:11.462Z,99240.88
2023-04-07T12:21:13.721Z,99246.19
2023-04-07T12:22:16.168Z,99230.09
2023-04-07T12:23:18.517Z,99245.03
2023-04-07T12:24:21.306Z,99244.25
2023-04-07T12:25:23.604Z,99241.88
2023-04-07T12:26:25.755Z,99260.84
2023-04-07T12:27:41.656Z,99264.06
2023-04-07T12:28:45.362Z,99259.97
2023-04-07T12:29:48.838Z,99255.41
2023-04-07T12:30:51.098Z,99261.81
2023-04-07T12:31:53.553Z,99253.03
2023-04-07T12:32:55.892Z,99261.44
2023-04-07T12:33:58.684Z,99257.13
2023-04-07T12:35:00.878Z,99253.63
2023-04-07T12:36:03.791Z,99257.66
2023-04-07T12:37:06.158Z,99263.19
2023-04-07T12:38:08.371Z,99250.94
2023-04-07T12:39:10.552Z,99256.13